sensor_id;sensor_type;location;lat;lon;timestamp;P1;durP1;ratioP1;P2;durP2;ratioP2
12908;SDS011;6522;49.622;6.126;2023-06-14T00:00:14;23.83;;;22.53;;
12908;SDS011;6522;49.622;6.126;2023-06-14T00:03:01;23.63;;;22.43;;
12908;SDS011;6522;49.622;6.126;2023-06-14T00:05:48;21.60;;;20.30;;
12908;SDS011;6522;49.622;6.126;2023-06-14T00:08:34;25.27;;;23.87;;
12908;SDS011;6522;49.622;6.126;2023-06-14T00:11:21;22.10;;;20.80;;
12908;SDS011;6522;49.622;6.126;2023-06-14T00:14:08;23.93;;;22.47;;
12908;SDS011;6522;49.622;6.126;2023-06-14T00:16:55;24.55;;;23.25;;
12908;SDS011;6522;49.622;6.126;2023-06-14T00:19:41;23.38;;;22.08;;
12908;SDS011;6522;49.622;6.126;2023-06-14T00:22:28;24.55;;;22.87;;
12908;SDS011;6522;49.622;6.126;2023-06-14T00:25:15;25.05;;;23.45;;
12908;SDS011;6522;49.622;6.126;2023-06-14T00:28:02;25.23;;;23.73;;
12908;SDS011;6522;49.622;6.126;2023-06-14T00:30:49;25.37;;;23.87;;
12908;SDS011;6522;49.622;6.126;2023-06-14T00:33:35;24.10;;;22.70;;
12908;SDS011;6522;49.622;6.126;2023-06-14T00:36:22;24.95;;;23.33;;
12908;SDS011;6522;49.622;6.126;2023-06-14T00:39:09;24.02;;;22.77;;
12908;SDS011;6522;49.622;6.126;2023-06-14T00:41:56;23.17;;;21.87;;
12908;SDS011;6522;49.622;6.126;2023-06-14T00:44:43;24.05;;;22.67;;
12908;SDS011;6522;49.622;6.126;2023-06-14T00:47:29;24.02;;;22.73;;
12908;SDS011;6522;49.622;6.126;2023-06-14T00:50:16;24.02;;;22.48;;
12908;SDS011;6522;49.622;6.126;2023-06-14T00:53:03;23.10;;;21.90;;
12908;SDS011;6522;49.622;6.126;2023-06-14T00:55:50;24.00;;;22.70;;
12908;SDS011;6522;49.622;6.126;2023-06-14T00:58:37;23.90;;;22.50;;
12908;SDS011;6522;49.622;6.126;2023-06-14T01:01:24;25.17;;;23.38;;
12908;SDS011;6522;49.622;6.126;2023-06-14T01:04:11;23.65;;;22.35;;
12908;SDS011;6522;49.622;6.126;2023-06-14T01:07:11;24.30;;;22.83;;
12908;SDS011;6522;49.622;6.126;2023-06-14T01:09:57;24.80;;;23.20;;
12908;SDS011;6522;49.622;6.126;2023-06-14T01:12:39;24.12;;;22.73;;
12908;SDS011;6522;49.622;6.126;2023-06-14T01:15:24;24.15;;;22.77;;
12908;SDS011;6522;49.622;6.126;2023-06-14T01:18:11;23.50;;;22.10;;
12908;SDS011;6522;49.622;6.126;2023-06-14T01:20:57;22.05;;;20.75;;
12908;SDS011;6522;49.622;6.126;2023-06-14T01:23:44;22.02;;;20.52;;
12908;SDS011;6522;49.622;6.126;2023-06-14T01:26:32;22.60;;;21.30;;
12908;SDS011;6522;49.622;6.126;2023-06-14T01:29:18;24.80;;;23.35;;
12908;SDS011;6522;49.622;6.126;2023-06-14T01:32:05;24.50;;;23.10;;
12908;SDS011;6522;49.622;6.126;2023-06-14T01:34:52;23.85;;;22.35;;
12908;SDS011;6522;49.622;6.126;2023-06-14T01:37:39;22.05;;;20.45;;
12908;SDS011;6522;49.622;6.126;2023-06-14T01:40:25;26.00;;;23.50;;
12908;SDS011;6522;49.622;6.126;2023-06-14T01:43:15;22.30;;;20.88;;
12908;SDS011;6522;49.622;6.126;2023-06-14T01:45:58;24.37;;;22.98;;
12908;SDS011;6522;49.622;6.126;2023-06-14T01:48:46;22.23;;;20.83;;
12908;SDS011;6522;49.622;6.126;2023-06-14T01:51:32;24.73;;;23.12;;
12908;SDS011;6522;49.622;6.126;2023-06-14T01:54:19;25.42;;;23.77;;
12908;SDS011;6522;49.622;6.126;2023-06-14T01:57:06;25.17;;;23.73;;
12908;SDS011;6522;49.622;6.126;2023-06-14T01:59:53;24.63;;;23.23;;
12908;SDS011;6522;49.622;6.126;2023-06-14T02:02:40;25.73;;;24.23;;
12908;SDS011;6522;49.622;6.126;2023-06-14T02:05:26;24.33;;;23.02;;
12908;SDS011;6522;49.622;6.126;2023-06-14T02:08:13;25.12;;;23.73;;
12908;SDS011;6522;49.622;6.126;2023-06-14T02:11:00;24.33;;;22.80;;
12908;SDS011;6522;49.622;6.126;2023-06-14T02:13:46;24.10;;;22.70;;
12908;SDS011;6522;49.622;6.126;2023-06-14T02:16:33;25.23;;;23.83;;
12908;SDS011;6522;49.622;6.126;2023-06-14T02:19:20;24.42;;;23.05;;
12908;SDS011;6522;49.622;6.126;2023-06-14T02:22:07;24.12;;;22.83;;
12908;SDS011;6522;49.622;6.126;2023-06-14T02:24:54;23.40;;;22.10;;
12908;SDS011;6522;49.622;6.126;2023-06-14T02:27:40;24.00;;;22.60;;
12908;SDS011;6522;49.622;6.126;2023-06-14T02:30:27;22.17;;;20.77;;
12908;SDS011;6522;49.622;6.126;2023-06-14T02:33:13;24.12;;;22.80;;
12908;SDS011;6522;49.622;6.126;2023-06-14T02:36:00;23.83;;;22.45;;
12908;SDS011;6522;49.622;6.126;2023-06-14T02:38:47;24.83;;;23.33;;
12908;SDS011;6522;49.622;6.126;2023-06-14T02:41:33;25.05;;;23.60;;
12908;SDS011;6522;49.622;6.126;2023-06-14T02:44:24;27.08;;;25.52;;
12908;SDS011;6522;49.622;6.126;2023-06-14T02:47:08;30.52;;;28.73;;
12908;SDS011;6522;49.622;6.126;2023-06-14T02:49:54;28.75;;;27.15;;
12908;SDS011;6522;49.622;6.126;2023-06-14T02:52:41;24.05;;;22.40;;
12908;SDS011;6522;49.622;6.126;2023-06-14T02:55:28;22.33;;;21.02;;
12908;SDS011;6522;49.622;6.126;2023-06-14T02:58:14;25.88;;;24.45;;
12908;SDS011;6522;49.622;6.126;2023-06-14T03:01:01;24.08;;;22.77;;
12908;SDS011;6522;49.622;6.126;2023-06-14T03:03:48;24.00;;;22.70;;
12908;SDS011;6522;49.622;6.126;2023-06-14T03:06:35;24.10;;;22.70;;
12908;SDS011;6522;49.622;6.126;2023-06-14T03:09:21;24.30;;;22.83;;
12908;SDS011;6522;49.622;6.126;2023-06-14T03:12:08;24.48;;;23.08;;
12908;SDS011;6522;49.622;6.126;2023-06-14T03:14:55;24.55;;;22.98;;
12908;SDS011;6522;49.622;6.126;2023-06-14T03:17:41;24.02;;;22.75;;
12908;SDS011;6522;49.622;6.126;2023-06-14T03:20:28;24.65;;;23.25;;
12908;SDS011;6522;49.622;6.126;2023-06-14T03:23:15;25.37;;;23.87;;
12908;SDS011;6522;49.622;6.126;2023-06-14T03:26:02;22.20;;;20.70;;
12908;SDS011;6522;49.622;6.126;2023-06-14T03:28:48;24.30;;;22.60;;
12908;SDS011;6522;49.622;6.126;2023-06-14T03:31:35;23.87;;;22.42;;
12908;SDS011;6522;49.622;6.126;2023-06-14T03:34:22;23.35;;;22.05;;
12908;SDS011;6522;49.622;6.126;2023-06-14T03:37:09;23.40;;;22.20;;
12908;SDS011;6522;49.622;6.126;2023-06-14T03:39:56;21.00;;;19.80;;
12908;SDS011;6522;49.622;6.126;2023-06-14T03:42:43;23.92;;;22.62;;
12908;SDS011;6522;49.622;6.126;2023-06-14T03:45:30;24.33;;;22.55;;
12908;SDS011;6522;49.622;6.126;2023-06-14T03:48:17;23.55;;;22.25;;
12908;SDS011;6522;49.622;6.126;2023-06-14T03:51:04;23.42;;;22.02;;
12908;SDS011;6522;49.622;6.126;2023-06-14T03:53:50;23.60;;;22.10;;
12908;SDS011;6522;49.622;6.126;2023-06-14T03:56:37;24.70;;;23.10;;
12908;SDS011;6522;49.622;6.126;2023-06-14T03:59:24;23.90;;;22.40;;
12908;SDS011;6522;49.622;6.126;2023-06-14T04:02:11;23.15;;;21.75;;
12908;SDS011;6522;49.622;6.126;2023-06-14T04:04:57;24.65;;;23.25;;
12908;SDS011;6522;49.622;6.126;2023-06-14T04:07:45;26.50;;;24.80;;
12908;SDS011;6522;49.622;6.126;2023-06-14T04:10:31;25.62;;;23.83;;
12908;SDS011;6522;49.622;6.126;2023-06-14T04:13:18;23.20;;;21.90;;
12908;SDS011;6522;49.622;6.126;2023-06-14T04:16:05;24.33;;;22.95;;
12908;SDS011;6522;49.622;6.126;2023-06-14T04:18:52;25.42;;;23.92;;
12908;SDS011;6522;49.622;6.126;2023-06-14T04:21:39;24.48;;;23.08;;
12908;SDS011;6522;49.622;6.126;2023-06-14T04:24:25;24.73;;;23.08;;
12908;SDS011;6522;49.622;6.126;2023-06-14T04:27:12;24.95;;;23.55;;
12908;SDS011;6522;49.622;6.126;2023-06-14T04:29:58;25.70;;;24.00;;
12908;SDS011;6522;49.622;6.126;2023-06-14T04:32:45;24.73;;;23.20;;
12908;SDS011;6522;49.622;6.126;2023-06-14T04:35:32;25.08;;;23.60;;
12908;SDS011;6522;49.622;6.126;2023-06-14T04:38:18;24.77;;;23.27;;
12908;SDS011;6522;49.622;6.126;2023-06-14T04:41:05;23.80;;;22.50;;
12908;SDS011;6522;49.622;6.126;2023-06-14T04:43:51;24.67;;;23.17;;
12908;SDS011;6522;49.622;6.126;2023-06-14T04:46:38;25.52;;;23.70;;
12908;SDS011;6522;49.622;6.126;2023-06-14T04:49:25;25.33;;;23.52;;
12908;SDS011;6522;49.622;6.126;2023-06-14T04:52:12;25.05;;;23.55;;
12908;SDS011;6522;49.622;6.126;2023-06-14T04:54:59;24.77;;;23.38;;
12908;SDS011;6522;49.622;6.126;2023-06-14T04:57:46;24.67;;;23.23;;
12908;SDS011;6522;49.622;6.126;2023-06-14T05:00:33;26.80;;;25.20;;
12908;SDS011;6522;49.622;6.126;2023-06-14T05:03:20;26.30;;;24.70;;
12908;SDS011;6522;49.622;6.126;2023-06-14T05:06:07;26.37;;;24.65;;
12908;SDS011;6522;49.622;6.126;2023-06-14T05:08:54;26.08;;;24.10;;
12908;SDS011;6522;49.622;6.126;2023-06-14T05:11:40;25.35;;;23.90;;
12908;SDS011;6522;49.622;6.126;2023-06-14T05:14:27;24.95;;;23.52;;
12908;SDS011;6522;49.622;6.126;2023-06-14T05:17:14;26.80;;;25.20;;
12908;SDS011;6522;49.622;6.126;2023-06-14T05:20:01;25.17;;;23.58;;
12908;SDS011;6522;49.622;6.126;2023-06-14T05:22:48;26.95;;;25.25;;
12908;SDS011;6522;49.622;6.126;2023-06-14T05:25:34;26.30;;;24.75;;
12908;SDS011;6522;49.622;6.126;2023-06-14T05:28:21;25.90;;;24.30;;
12908;SDS011;6522;49.622;6.126;2023-06-14T05:31:08;26.55;;;24.75;;
12908;SDS011;6522;49.622;6.126;2023-06-14T05:33:55;28.27;;;25.70;;
12908;SDS011;6522;49.622;6.126;2023-06-14T05:36:42;25.62;;;24.02;;
12908;SDS011;6522;49.622;6.126;2023-06-14T05:39:28;26.48;;;24.87;;
12908;SDS011;6522;49.622;6.126;2023-06-14T05:42:15;26.12;;;24.52;;
12908;SDS011;6522;49.622;6.126;2023-06-14T05:45:02;26.40;;;24.80;;
12908;SDS011;6522;49.622;6.126;2023-06-14T05:47:49;26.42;;;24.83;;
12908;SDS011;6522;49.622;6.126;2023-06-14T05:50:35;27.20;;;25.27;;
12908;SDS011;6522;49.622;6.126;2023-06-14T05:53:22;27.08;;;25.48;;
12908;SDS011;6522;49.622;6.126;2023-06-14T05:56:09;25.90;;;23.90;;
12908;SDS011;6522;49.622;6.126;2023-06-14T05:58:56;27.50;;;25.27;;
12908;SDS011;6522;49.622;6.126;2023-06-14T06:01:43;28.42;;;26.73;;
12908;SDS011;6522;49.622;6.126;2023-06-14T06:04:30;26.65;;;24.65;;
12908;SDS011;6522;49.622;6.126;2023-06-14T06:07:16;26.17;;;24.67;;
12908;SDS011;6522;49.622;6.126;2023-06-14T06:10:04;27.10;;;25.40;;
12908;SDS011;6522;49.622;6.126;2023-06-14T06:12:50;26.58;;;25.12;;
12908;SDS011;6522;49.622;6.126;2023-06-14T06:15:37;27.15;;;25.27;;
12908;SDS011;6522;49.622;6.126;2023-06-14T06:18:24;26.45;;;24.95;;
12908;SDS011;6522;49.622;6.126;2023-06-14T06:21:11;27.42;;;25.75;;
12908;SDS011;6522;49.622;6.126;2023-06-14T06:23:57;27.10;;;25.45;;
12908;SDS011;6522;49.622;6.126;2023-06-14T06:26:45;26.50;;;25.03;;
12908;SDS011;6522;49.622;6.126;2023-06-14T06:29:31;25.83;;;24.02;;
12908;SDS011;6522;49.622;6.126;2023-06-14T06:32:18;25.33;;;23.62;;
12908;SDS011;6522;49.622;6.126;2023-06-14T06:35:05;26.90;;;25.40;;
12908;SDS011;6522;49.622;6.126;2023-06-14T06:37:52;25.80;;;24.20;;
12908;SDS011;6522;49.622;6.126;2023-06-14T06:40:39;27.97;;;26.17;;
12908;SDS011;6522;49.622;6.126;2023-06-14T06:43:25;25.00;;;23.40;;
12908;SDS011;6522;49.622;6.126;2023-06-14T06:46:12;25.00;;;23.50;;
12908;SDS011;6522;49.622;6.126;2023-06-14T06:48:59;27.17;;;25.53;;
12908;SDS011;6522;49.622;6.126;2023-06-14T06:51:58;24.63;;;23.13;;
12908;SDS011;6522;49.622;6.126;2023-06-14T06:54:33;24.35;;;22.75;;
12908;SDS011;6522;49.622;6.126;2023-06-14T06:57:19;27.93;;;26.03;;
12908;SDS011;6522;49.622;6.126;2023-06-14T07:00:06;23.83;;;22.33;;
12908;SDS011;6522;49.622;6.126;2023-06-14T07:02:53;25.02;;;23.23;;
12908;SDS011;6522;49.622;6.126;2023-06-14T07:05:40;29.70;;;27.40;;
12908;SDS011;6522;49.622;6.126;2023-06-14T07:08:26;31.10;;;29.40;;
12908;SDS011;6522;49.622;6.126;2023-06-14T07:11:14;31.48;;;29.70;;
12908;SDS011;6522;49.622;6.126;2023-06-14T07:14:00;27.50;;;26.00;;
12908;SDS011;6522;49.622;6.126;2023-06-14T07:16:47;24.10;;;22.70;;
12908;SDS011;6522;49.622;6.126;2023-06-14T07:19:33;26.47;;;24.87;;
12908;SDS011;6522;49.622;6.126;2023-06-14T07:22:20;25.08;;;23.58;;
12908;SDS011;6522;49.622;6.126;2023-06-14T07:25:08;27.47;;;25.87;;
12908;SDS011;6522;49.622;6.126;2023-06-14T07:27:54;27.30;;;25.80;;
12908;SDS011;6522;49.622;6.126;2023-06-14T07:30:41;24.30;;;22.80;;
12908;SDS011;6522;49.622;6.126;2023-06-14T07:33:28;26.87;;;25.37;;
12908;SDS011;6522;49.622;6.126;2023-06-14T07:36:15;24.02;;;22.42;;
12908;SDS011;6522;49.622;6.126;2023-06-14T07:39:02;25.83;;;24.30;;
12908;SDS011;6522;49.622;6.126;2023-06-14T07:41:49;26.60;;;25.10;;
12908;SDS011;6522;49.622;6.126;2023-06-14T07:44:35;26.43;;;24.93;;
12908;SDS011;6522;49.622;6.126;2023-06-14T07:47:22;25.43;;;24.03;;
12908;SDS011;6522;49.622;6.126;2023-06-14T07:50:09;27.20;;;25.70;;
12908;SDS011;6522;49.622;6.126;2023-06-14T07:52:56;25.67;;;24.37;;
12908;SDS011;6522;49.622;6.126;2023-06-14T07:55:42;26.13;;;24.63;;
12908;SDS011;6522;49.622;6.126;2023-06-14T07:58:29;26.10;;;24.70;;
12908;SDS011;6522;49.622;6.126;2023-06-14T08:01:16;28.27;;;26.70;;
12908;SDS011;6522;49.622;6.126;2023-06-14T08:04:02;26.13;;;24.70;;
12908;SDS011;6522;49.622;6.126;2023-06-14T08:06:50;26.30;;;24.80;;
12908;SDS011;6522;49.622;6.126;2023-06-14T08:09:36;27.50;;;25.90;;
12908;SDS011;6522;49.622;6.126;2023-06-14T08:12:23;26.60;;;24.73;;
12908;SDS011;6522;49.622;6.126;2023-06-14T08:15:10;26.10;;;24.50;;
12908;SDS011;6522;49.622;6.126;2023-06-14T08:17:56;24.73;;;23.23;;
12908;SDS011;6522;49.622;6.126;2023-06-14T08:20:43;26.70;;;25.00;;
12908;SDS011;6522;49.622;6.126;2023-06-14T08:23:30;25.50;;;23.90;;
12908;SDS011;6522;49.622;6.126;2023-06-14T08:26:17;24.95;;;23.35;;
12908;SDS011;6522;49.622;6.126;2023-06-14T08:29:04;26.97;;;25.37;;
12908;SDS011;6522;49.622;6.126;2023-06-14T08:31:50;25.83;;;24.33;;
12908;SDS011;6522;49.622;6.126;2023-06-14T08:34:37;26.97;;;25.20;;
12908;SDS011;6522;49.622;6.126;2023-06-14T08:37:24;26.30;;;24.80;;
12908;SDS011;6522;49.622;6.126;2023-06-14T08:40:18;24.80;;;23.50;;
12908;SDS011;6522;49.622;6.126;2023-06-14T08:43:04;26.43;;;24.73;;
12908;SDS011;6522;49.622;6.126;2023-06-14T08:45:52;26.83;;;25.23;;
12908;SDS011;6522;49.622;6.126;2023-06-14T08:48:37;26.67;;;25.07;;
12908;SDS011;6522;49.622;6.126;2023-06-14T08:51:24;25.33;;;24.03;;
12908;SDS011;6522;49.622;6.126;2023-06-14T08:54:11;25.15;;;23.48;;
12908;SDS011;6522;49.622;6.126;2023-06-14T08:56:57;27.07;;;25.50;;
12908;SDS011;6522;49.622;6.126;2023-06-14T08:59:47;26.07;;;24.57;;
12908;SDS011;6522;49.622;6.126;2023-06-14T09:02:31;25.63;;;24.23;;
12908;SDS011;6522;49.622;6.126;2023-06-14T09:05:17;24.60;;;23.30;;
12908;SDS011;6522;49.622;6.126;2023-06-14T09:08:04;25.80;;;24.40;;
12908;SDS011;6522;49.622;6.126;2023-06-14T09:10:51;25.80;;;24.30;;
12908;SDS011;6522;49.622;6.126;2023-06-14T09:13:37;24.07;;;22.87;;
12908;SDS011;6522;49.622;6.126;2023-06-14T09:16:24;25.00;;;23.40;;
12908;SDS011;6522;49.622;6.126;2023-06-14T09:19:20;24.93;;;23.50;;
12908;SDS011;6522;49.622;6.126;2023-06-14T09:21:57;23.83;;;22.63;;
12908;SDS011;6522;49.622;6.126;2023-06-14T09:24:43;23.63;;;22.43;;
12908;SDS011;6522;49.622;6.126;2023-06-14T09:27:30;23.77;;;22.43;;
12908;SDS011;6522;49.622;6.126;2023-06-14T09:30:19;22.87;;;21.67;;
12908;SDS011;6522;49.622;6.126;2023-06-14T09:33:03;23.20;;;22.10;;
12908;SDS011;6522;49.622;6.126;2023-06-14T09:35:56;22.10;;;21.00;;
12908;SDS011;6522;49.622;6.126;2023-06-14T09:38:53;22.20;;;21.10;;
12908;SDS011;6522;49.622;6.126;2023-06-14T09:41:33;25.10;;;23.60;;
12908;SDS011;6522;49.622;6.126;2023-06-14T09:44:19;23.40;;;22.20;;
12908;SDS011;6522;49.622;6.126;2023-06-14T09:47:06;24.37;;;23.03;;
12908;SDS011;6522;49.622;6.126;2023-06-14T09:49:53;23.23;;;21.87;;
12908;SDS011;6522;49.622;6.126;2023-06-14T09:52:40;22.73;;;21.53;;
12908;SDS011;6522;49.622;6.126;2023-06-14T09:55:26;22.83;;;21.60;;
12908;SDS011;6522;49.622;6.126;2023-06-14T09:58:14;21.12;;;19.83;;
12908;SDS011;6522;49.622;6.126;2023-06-14T10:01:00;22.60;;;21.40;;
12908;SDS011;6522;49.622;6.126;2023-06-14T10:03:47;24.03;;;22.60;;
12908;SDS011;6522;49.622;6.126;2023-06-14T10:06:40;22.70;;;21.30;;
12908;SDS011;6522;49.622;6.126;2023-06-14T10:09:24;20.73;;;19.52;;
12908;SDS011;6522;49.622;6.126;2023-06-14T10:12:12;20.10;;;19.00;;
12908;SDS011;6522;49.622;6.126;2023-06-14T10:14:58;21.90;;;20.80;;
12908;SDS011;6522;49.622;6.126;2023-06-14T10:17:47;22.57;;;21.17;;
12908;SDS011;6522;49.622;6.126;2023-06-14T10:20:37;20.90;;;19.70;;
12908;SDS011;6522;49.622;6.126;2023-06-14T10:23:22;19.30;;;18.30;;
12908;SDS011;6522;49.622;6.126;2023-06-14T10:26:08;22.40;;;21.03;;
12908;SDS011;6522;49.622;6.126;2023-06-14T10:29:08;21.50;;;20.20;;
12908;SDS011;6522;49.622;6.126;2023-06-14T10:31:58;20.77;;;19.73;;
12908;SDS011;6522;49.622;6.126;2023-06-14T10:34:44;21.73;;;20.30;;
12908;SDS011;6522;49.622;6.126;2023-06-14T10:37:31;21.97;;;20.60;;
12908;SDS011;6522;49.622;6.126;2023-06-14T10:40:30;21.93;;;20.73;;
12908;SDS011;6522;49.622;6.126;2023-06-14T10:43:23;21.70;;;20.37;;
12908;SDS011;6522;49.622;6.126;2023-06-14T10:46:16;20.60;;;19.50;;
12908;SDS011;6522;49.622;6.126;2023-06-14T10:49:01;21.27;;;20.17;;
12908;SDS011;6522;49.622;6.126;2023-06-14T10:51:51;20.67;;;19.57;;
12908;SDS011;6522;49.622;6.126;2023-06-14T10:54:38;20.90;;;19.90;;
12908;SDS011;6522;49.622;6.126;2023-06-14T10:57:25;20.83;;;19.63;;
12908;SDS011;6522;49.622;6.126;2023-06-14T11:00:12;21.23;;;20.03;;
12908;SDS011;6522;49.622;6.126;2023-06-14T11:05:57;21.13;;;19.53;;
12908;SDS011;6522;49.622;6.126;2023-06-14T11:11:49;19.00;;;17.73;;
12908;SDS011;6522;49.622;6.126;2023-06-14T11:14:35;21.17;;;20.07;;
12908;SDS011;6522;49.622;6.126;2023-06-14T11:17:22;21.27;;;19.77;;
12908;SDS011;6522;49.622;6.126;2023-06-14T11:20:09;20.80;;;19.60;;
12908;SDS011;6522;49.622;6.126;2023-06-14T11:22:55;21.07;;;19.63;;
12908;SDS011;6522;49.622;6.126;2023-06-14T11:25:42;20.27;;;19.27;;
12908;SDS011;6522;49.622;6.126;2023-06-14T11:28:35;21.20;;;19.80;;
12908;SDS011;6522;49.622;6.126;2023-06-14T11:31:21;20.23;;;19.10;;
12908;SDS011;6522;49.622;6.126;2023-06-14T11:34:08;18.27;;;17.20;;
12908;SDS011;6522;49.622;6.126;2023-06-14T11:36:55;17.60;;;16.70;;
12908;SDS011;6522;49.622;6.126;2023-06-14T11:39:45;20.00;;;18.90;;
12908;SDS011;6522;49.622;6.126;2023-06-14T11:42:32;19.70;;;18.60;;
12908;SDS011;6522;49.622;6.126;2023-06-14T11:45:18;22.00;;;20.53;;
12908;SDS011;6522;49.622;6.126;2023-06-14T11:48:06;22.20;;;20.60;;
12908;SDS011;6522;49.622;6.126;2023-06-14T11:50:52;21.43;;;19.83;;
12908;SDS011;6522;49.622;6.126;2023-06-14T11:53:39;21.10;;;19.90;;
12908;SDS011;6522;49.622;6.126;2023-06-14T11:56:26;22.30;;;20.93;;
12908;SDS011;6522;49.622;6.126;2023-06-14T11:59:13;18.52;;;17.42;;
12908;SDS011;6522;49.622;6.126;2023-06-14T12:01:59;21.20;;;19.80;;
12908;SDS011;6522;49.622;6.126;2023-06-14T12:04:49;20.97;;;19.87;;
12908;SDS011;6522;49.622;6.126;2023-06-14T12:07:39;21.27;;;20.07;;
12908;SDS011;6522;49.622;6.126;2023-06-14T12:10:28;20.60;;;19.43;;
12908;SDS011;6522;49.622;6.126;2023-06-14T12:13:16;20.20;;;19.00;;
12908;SDS011;6522;49.622;6.126;2023-06-14T12:16:02;20.63;;;18.70;;
12908;SDS011;6522;49.622;6.126;2023-06-14T12:18:49;18.60;;;17.60;;
12908;SDS011;6522;49.622;6.126;2023-06-14T12:21:36;20.27;;;19.30;;
12908;SDS011;6522;49.622;6.126;2023-06-14T12:24:22;20.70;;;19.50;;
12908;SDS011;6522;49.622;6.126;2023-06-14T12:27:09;22.00;;;20.80;;
12908;SDS011;6522;49.622;6.126;2023-06-14T12:30:00;20.07;;;19.17;;
12908;SDS011;6522;49.622;6.126;2023-06-14T12:32:43;21.30;;;20.20;;
12908;SDS011;6522;49.622;6.126;2023-06-14T12:35:29;21.43;;;20.33;;
12908;SDS011;6522;49.622;6.126;2023-06-14T12:38:16;20.50;;;19.20;;
12908;SDS011;6522;49.622;6.126;2023-06-14T12:41:03;19.57;;;18.57;;
12908;SDS011;6522;49.622;6.126;2023-06-14T12:43:50;20.70;;;19.30;;
12908;SDS011;6522;49.622;6.126;2023-06-14T12:46:36;21.67;;;20.57;;
12908;SDS011;6522;49.622;6.126;2023-06-14T12:49:23;20.70;;;19.60;;
12908;SDS011;6522;49.622;6.126;2023-06-14T12:52:10;18.27;;;17.00;;
12908;SDS011;6522;49.622;6.126;2023-06-14T12:54:57;19.83;;;18.73;;
12908;SDS011;6522;49.622;6.126;2023-06-14T12:57:44;21.77;;;20.40;;
12908;SDS011;6522;49.622;6.126;2023-06-14T13:00:31;20.13;;;19.13;;
12908;SDS011;6522;49.622;6.126;2023-06-14T13:03:17;20.20;;;19.00;;
12908;SDS011;6522;49.622;6.126;2023-06-14T13:06:04;20.80;;;19.70;;
12908;SDS011;6522;49.622;6.126;2023-06-14T13:08:51;19.63;;;18.50;;
12908;SDS011;6522;49.622;6.126;2023-06-14T13:11:38;20.47;;;18.77;;
12908;SDS011;6522;49.622;6.126;2023-06-14T13:14:25;20.30;;;19.17;;
12908;SDS011;6522;49.622;6.126;2023-06-14T13:17:11;21.10;;;19.90;;
12908;SDS011;6522;49.622;6.126;2023-06-14T13:19:58;19.77;;;18.63;;
12908;SDS011;6522;49.622;6.126;2023-06-14T13:22:45;20.87;;;19.47;;
12908;SDS011;6522;49.622;6.126;2023-06-14T13:25:33;19.40;;;18.30;;
12908;SDS011;6522;49.622;6.126;2023-06-14T13:28:19;20.47;;;19.07;;
12908;SDS011;6522;49.622;6.126;2023-06-14T13:31:06;19.97;;;18.73;;
12908;SDS011;6522;49.622;6.126;2023-06-14T13:33:53;20.07;;;19.07;;
12908;SDS011;6522;49.622;6.126;2023-06-14T13:36:40;21.03;;;19.83;;
12908;SDS011;6522;49.622;6.126;2023-06-14T13:39:27;20.20;;;18.90;;
12908;SDS011;6522;49.622;6.126;2023-06-14T13:42:13;19.90;;;18.80;;
12908;SDS011;6522;49.622;6.126;2023-06-14T13:45:00;20.47;;;19.37;;
12908;SDS011;6522;49.622;6.126;2023-06-14T13:47:47;20.83;;;19.60;;
12908;SDS011;6522;49.622;6.126;2023-06-14T13:50:33;20.30;;;19.17;;
12908;SDS011;6522;49.622;6.126;2023-06-14T13:53:20;20.47;;;19.10;;
12908;SDS011;6522;49.622;6.126;2023-06-14T13:56:07;19.73;;;18.73;;
12908;SDS011;6522;49.622;6.126;2023-06-14T13:58:54;19.90;;;18.80;;
12908;SDS011;6522;49.622;6.126;2023-06-14T14:01:41;20.20;;;19.10;;
12908;SDS011;6522;49.622;6.126;2023-06-14T14:04:28;19.60;;;18.53;;
12908;SDS011;6522;49.622;6.126;2023-06-14T14:07:15;20.10;;;19.00;;
12908;SDS011;6522;49.622;6.126;2023-06-14T14:10:02;19.37;;;18.33;;
12908;SDS011;6522;49.622;6.126;2023-06-14T14:12:48;19.50;;;18.40;;
12908;SDS011;6522;49.622;6.126;2023-06-14T14:15:35;20.20;;;19.20;;
12908;SDS011;6522;49.622;6.126;2023-06-14T14:18:21;20.13;;;18.97;;
12908;SDS011;6522;49.622;6.126;2023-06-14T14:21:08;20.50;;;19.40;;
12908;SDS011;6522;49.622;6.126;2023-06-14T14:23:55;20.80;;;19.50;;
12908;SDS011;6522;49.622;6.126;2023-06-14T14:26:42;17.80;;;16.80;;
12908;SDS011;6522;49.622;6.126;2023-06-14T14:29:28;20.50;;;19.40;;
12908;SDS011;6522;49.622;6.126;2023-06-14T14:32:17;20.53;;;19.23;;
12908;SDS011;6522;49.622;6.126;2023-06-14T14:35:04;21.57;;;20.27;;
12908;SDS011;6522;49.622;6.126;2023-06-14T14:37:51;21.07;;;19.80;;
12908;SDS011;6522;49.622;6.126;2023-06-14T14:40:39;18.05;;;17.05;;
12908;SDS011;6522;49.622;6.126;2023-06-14T14:43:25;20.60;;;19.13;;
12908;SDS011;6522;49.622;6.126;2023-06-14T14:46:11;20.80;;;19.73;;
12908;SDS011;6522;49.622;6.126;2023-06-14T14:48:58;20.70;;;19.60;;
12908;SDS011;6522;49.622;6.126;2023-06-14T14:51:45;20.20;;;19.10;;
12908;SDS011;6522;49.622;6.126;2023-06-14T14:54:32;20.37;;;19.27;;
12908;SDS011;6522;49.622;6.126;2023-06-14T14:57:19;21.27;;;20.07;;
12908;SDS011;6522;49.622;6.126;2023-06-14T15:00:06;20.87;;;19.20;;
12908;SDS011;6522;49.622;6.126;2023-06-14T15:02:53;20.67;;;19.60;;
12908;SDS011;6522;49.622;6.126;2023-06-14T15:05:39;21.93;;;20.63;;
12908;SDS011;6522;49.622;6.126;2023-06-14T15:08:26;21.00;;;19.70;;
12908;SDS011;6522;49.622;6.126;2023-06-14T15:11:13;22.33;;;20.80;;
12908;SDS011;6522;49.622;6.126;2023-06-14T15:14:00;22.50;;;21.20;;
12908;SDS011;6522;49.622;6.126;2023-06-14T15:16:47;22.23;;;20.80;;
12908;SDS011;6522;49.622;6.126;2023-06-14T15:19:33;22.40;;;21.10;;
12908;SDS011;6522;49.622;6.126;2023-06-14T15:22:20;22.13;;;20.93;;
12908;SDS011;6522;49.622;6.126;2023-06-14T15:25:06;22.00;;;20.90;;
12908;SDS011;6522;49.622;6.126;2023-06-14T15:27:54;22.80;;;21.53;;
12908;SDS011;6522;49.622;6.126;2023-06-14T15:30:40;22.27;;;20.97;;
12908;SDS011;6522;49.622;6.126;2023-06-14T15:33:26;21.60;;;20.47;;
12908;SDS011;6522;49.622;6.126;2023-06-14T15:36:13;21.70;;;20.40;;
12908;SDS011;6522;49.622;6.126;2023-06-14T15:39:00;21.30;;;20.20;;
12908;SDS011;6522;49.622;6.126;2023-06-14T15:41:47;21.20;;;19.80;;
12908;SDS011;6522;49.622;6.126;2023-06-14T15:44:33;21.90;;;20.60;;
12908;SDS011;6522;49.622;6.126;2023-06-14T15:47:20;22.10;;;20.80;;
12908;SDS011;6522;49.622;6.126;2023-06-14T15:50:07;21.13;;;20.13;;
12908;SDS011;6522;49.622;6.126;2023-06-14T15:52:53;22.23;;;21.03;;
12908;SDS011;6522;49.622;6.126;2023-06-14T15:55:40;22.30;;;21.10;;
12908;SDS011;6522;49.622;6.126;2023-06-14T15:58:27;22.17;;;21.07;;
12908;SDS011;6522;49.622;6.126;2023-06-14T16:01:14;22.97;;;21.47;;
12908;SDS011;6522;49.622;6.126;2023-06-14T16:04:01;21.90;;;20.70;;
12908;SDS011;6522;49.622;6.126;2023-06-14T16:06:48;22.27;;;21.07;;
12908;SDS011;6522;49.622;6.126;2023-06-14T16:09:34;22.17;;;20.77;;
12908;SDS011;6522;49.622;6.126;2023-06-14T16:12:21;21.50;;;20.40;;
12908;SDS011;6522;49.622;6.126;2023-06-14T16:15:08;22.47;;;21.17;;
12908;SDS011;6522;49.622;6.126;2023-06-14T16:17:55;21.73;;;20.63;;
12908;SDS011;6522;49.622;6.126;2023-06-14T16:20:42;21.30;;;20.20;;
12908;SDS011;6522;49.622;6.126;2023-06-14T16:23:28;22.03;;;20.90;;
12908;SDS011;6522;49.622;6.126;2023-06-14T16:26:15;21.83;;;20.63;;
12908;SDS011;6522;49.622;6.126;2023-06-14T16:29:02;22.40;;;21.20;;
12908;SDS011;6522;49.622;6.126;2023-06-14T16:31:48;21.70;;;20.50;;
12908;SDS011;6522;49.622;6.126;2023-06-14T16:34:35;21.87;;;20.77;;